Préparation du vol

Réserver un ULM chez EFU                     Découvrir nos appareils                     Coordonnées de l'école

Available data for LFPN from the past hour

METAR
LFPN 252000Z AUTO 36008KT CAVOK 07/M03 Q1011 NOSIG
LFPN 251930Z AUTO 35009KT CAVOK 07/M03 Q1011 NOSIG
TAF
TAF LFPN 251700Z 2518/2603 01006KT CAVOK

Pour avoir des informations détaillée sur la météo à venir vous pouvez consulter Aeroweb

prevision des pluies

Nota : Heuro locale = heure CET

ATISATIS Étampes129.900
SOLÉtampes sol121.850
TWRÉtampes tour119.050
VDFÉtampes gonio119.050

OLIVIA

Outil en Ligne Intégré de Visualisation d'Informations Aéronautiques

OLIVIA